Карточка аэропорта USHH

Внимание!
Информация на этой странице в стадии наполнения.
Если вы не увидели какой-то информации, или заметили неточность - пожалуйста сообщите нам!
Спасибо!
Команда RU-STAFF
Название аэропортаХанты-Мансийск
Название аэропорта (англ.)Khanty-Mansiysk
Превышение141 ft. (43 m.)
Координаты61°1.7039999999999', 69°5.1599999999999'
Высота перехода800m
Эшелон переходаFL050
Коды ответчика5150-5177
Зона ОрВДТюмень РПИ (USTV)
Данные METARUSHH 042130Z 03002MPS 9999 -SHSN BKN007CB M10/M11 Q1040 R06/450233 TEMPO 1000 SHSN BKN003 OVC010CB
Проноз погоды (TAF)USHH 041950Z 0421/0521 04003G09MPS 6000 -SN BKN005 OVC016 TEMPO 0421/0506 0500 FZFG BKN002 OVC011 BECMG 0502/0504 26003G10MPS BECMG 0506/0508 9999 FEW005 BKN016 TEMPO 0508/0515 5000 -SN BR SCT004 BKN016
NOTAMshow/hide NOTAM
AWOS   TABLE

Информация о ВПП

ВПП Длина ВПП (м.) Покрытие Курс ВПП Частота ILS
062800Асфальтобетон58111.9
242800Асфальтобетон238110.1

Диспетчерские позиции

Позывной Наименование органа УВД Частота
USHH_TWRХантым-Вышка118.1
USHH_R_APPХантым-Круг120.4



Спутниковое изображение